Time;durP1;ratioP1;P1;durP2;ratioP2;P2;SDS_P1;SDS_P2;PMS_P1;PMS_P2;Temp;Humidity;BMP_temperature;BMP_pressure;BME280_temperature;BME280_humidity;BME280_pressure;Samples;Min_cycle;Max_cycle;Signal;HPM_P1;HPM_P2
2021/07/19 00:00:43;;;;;;;20.52;16.67;;;28.40;63.90;;;;;;1914795;75;21090;-53
2021/07/19 00:03:12;;;;;;;18.80;17.00;;;28.40;63.90;;;;;;1914722;75;21071;-54
2021/07/19 00:05:42;;;;;;;19.82;16.62;;;28.40;63.60;;;;;;1914892;75;21040;-53
2021/07/19 00:08:11;;;;;;;18.77;16.77;;;28.30;63.90;;;;;;1914773;75;21024;-53
2021/07/19 00:10:41;;;;;;;19.17;17.17;;;28.20;64.50;;;;;;1914757;75;21028;-53
2021/07/19 00:13:10;;;;;;;19.67;17.45;;;28.20;64.90;;;;;;1914761;75;21086;-54
2021/07/19 00:15:40;;;;;;;18.27;16.40;;;28.20;64.80;;;;;;1915001;75;21031;-53
2021/07/19 00:18:09;;;;;;;20.40;15.53;;;28.20;64.70;;;;;;1880001;75;21064;-52
2021/07/19 00:20:39;;;;;;;18.35;16.52;;;28.10;64.90;;;;;;1914876;75;21093;-54
2021/07/19 00:23:08;;;;;;;19.23;17.35;;;28.10;65.10;;;;;;1914832;75;21098;-54
2021/07/19 00:25:39;;;;;;;19.67;17.57;;;28.10;64.80;;;;;;1914757;75;21028;-54
2021/07/19 00:28:08;;;;;;;18.60;16.70;;;28.00;64.80;;;;;;1914779;75;21032;-52
2021/07/19 00:30:38;;;;;;;20.90;18.80;;;27.90;65.50;;;;;;1914876;75;21103;-53
2021/07/19 00:33:08;;;;;;;21.95;18.37;;;27.90;65.60;;;;;;1914822;75;21071;-53
2021/07/19 00:35:37;;;;;;;20.37;18.20;;;27.80;65.50;;;;;;1914900;74;21036;-53
2021/07/19 00:38:07;;;;;;;19.62;17.75;;;27.70;65.70;;;;;;1914747;75;21008;-54
2021/07/19 00:40:37;;;;;;;21.57;18.85;;;27.60;65.90;;;;;;1914859;75;21094;-53
2021/07/19 00:43:07;;;;;;;21.40;18.27;;;27.40;66.10;;;;;;1914727;75;21093;-53
2021/07/19 00:45:37;;;;;;;21.10;19.05;;;27.30;66.50;;;;;;1914781;75;21008;-54
2021/07/19 00:48:07;;;;;;;21.05;18.87;;;27.20;66.80;;;;;;1914822;75;21137;-53
2021/07/19 00:50:39;;;;;;;19.25;17.17;;;27.20;67.50;;;;;;1914764;75;21040;-53
2021/07/19 00:53:09;;;;;;;19.48;17.65;;;27.10;67.70;;;;;;1919698;74;21133;-53
2021/07/19 00:55:42;;;;;;;19.37;17.50;;;27.10;67.80;;;;;;1931123;74;21615;-53
2021/07/19 00:58:13;;;;;;;18.70;16.73;;;27.10;67.90;;;;;;1931261;74;21106;-53
2021/07/19 01:00:45;;;;;;;19.05;17.15;;;27.20;67.80;;;;;;1931256;74;21028;-54
2021/07/19 01:03:17;;;;;;;18.17;16.20;;;27.30;67.60;;;;;;1931047;74;21031;-53
2021/07/19 01:05:47;;;;;;;23.12;16.93;;;27.40;67.40;;;;;;1931170;74;21089;-53
2021/07/19 01:08:19;;;;;;;17.05;14.87;;;27.40;67.10;;;;;;1931132;74;20999;-53
2021/07/19 01:10:50;;;;;;;50.28;17.23;;;27.50;66.90;;;;;;1931107;74;21517;-53
2021/07/19 01:13:21;;;;;;;17.67;15.72;;;27.50;66.70;;;;;;1931051;74;21098;-54
2021/07/19 01:15:51;;;;;;;16.30;14.73;;;27.50;66.60;;;;;;1931083;74;21063;-52
2021/07/19 01:18:22;;;;;;;16.90;14.75;;;27.50;66.60;;;;;;1931050;74;21031;-54
2021/07/19 01:21:07;;;;;;;16.85;15.10;;;27.60;66.40;;;;;;1931261;74;21051;-53
2021/07/19 01:23:43;;;;;;;17.23;15.38;;;27.60;66.10;;;;;;1911718;74;21046;-54
2021/07/19 01:26:34;;;;;;;17.65;15.90;;;27.60;66.10;;;;;;1931079;74;21048;-53
2021/07/19 01:29:06;;;;;;;18.00;16.07;;;27.70;66.00;;;;;;1930469;74;21109;-53
2021/07/19 01:31:42;;;;;;;16.25;14.40;;;27.70;65.70;;;;;;1931092;74;21036;-52
2021/07/19 01:34:27;;;;;;;18.20;16.27;;;27.70;65.90;;;;;;1931127;74;21098;-53
2021/07/19 01:37:05;;;;;;;19.82;16.73;;;27.60;66.00;;;;;;1931395;74;21085;-53
2021/07/19 01:39:38;;;;;;;19.25;15.80;;;27.60;65.90;;;;;;1929570;74;21042;-53
2021/07/19 01:42:08;;;;;;;19.02;15.45;;;27.60;66.20;;;;;;1930978;74;21039;-54
2021/07/19 01:44:39;;;;;;;17.20;15.50;;;27.60;66.40;;;;;;1931085;74;21035;-54
2021/07/19 01:47:11;;;;;;;17.85;15.83;;;27.50;66.30;;;;;;1931139;74;21094;-54
2021/07/19 01:49:42;;;;;;;17.50;15.60;;;27.50;66.40;;;;;;1930644;74;21034;-54
2021/07/19 01:52:14;;;;;;;17.05;15.30;;;27.50;66.50;;;;;;1931023;74;21028;-53
2021/07/19 01:54:46;;;;;;;18.75;14.50;;;27.60;66.70;;;;;;1919543;74;21040;-53
2021/07/19 01:57:16;;;;;;;16.90;15.15;;;27.60;66.70;;;;;;1914863;75;21106;-53
2021/07/19 01:59:50;;;;;;;18.95;16.57;;;27.60;66.50;;;;;;1881084;75;21092;-54
2021/07/19 02:02:25;;;;;;;19.73;16.82;;;27.60;66.50;;;;;;1909443;75;21522;-53
2021/07/19 02:04:56;;;;;;;20.30;16.95;;;27.60;66.60;;;;;;1914284;75;21080;-53
2021/07/19 02:07:28;;;;;;;18.77;15.25;;;27.50;66.50;;;;;;1914774;75;21024;-53
2021/07/19 02:09:59;;;;;;;18.25;16.30;;;27.50;66.80;;;;;;1913614;75;21087;-52
2021/07/19 02:12:40;;;;;;;18.62;15.00;;;27.50;67.00;;;;;;1912900;75;21146;-52
2021/07/19 02:15:16;;;;;;;18.50;15.60;;;27.50;67.00;;;;;;1914602;75;21088;-53
2021/07/19 02:17:49;;;;;;;;;;;27.50;67.10;;;;;;1917627;75;21086;-53
2021/07/19 02:20:21;;;;;;;17.67;15.43;;;27.50;66.80;;;;;;1913684;75;20103;-54
2021/07/19 02:22:52;;;;;;;16.57;14.85;;;27.50;66.60;;;;;;1914706;75;21502;-54
2021/07/19 02:25:41;;;;;;;16.60;14.43;;;27.50;66.70;;;;;;1914741;75;21060;-53
2021/07/19 02:28:12;;;;;;;21.12;14.55;;;27.50;66.70;;;;;;1914811;75;21043;-52
2021/07/19 02:30:42;;;;;;;20.80;15.70;;;27.50;66.20;;;;;;1914704;75;21096;-53
2021/07/19 02:33:14;;;;;;;21.75;16.10;;;27.50;66.20;;;;;;1914754;75;21095;-53
2021/07/19 02:35:46;;;;;;;19.73;16.42;;;27.50;66.00;;;;;;1914553;75;21024;-53
2021/07/19 02:38:17;;;;;;;23.15;17.50;;;27.50;65.80;;;;;;1914781;75;21040;-52
2021/07/19 02:40:53;;;;;;;17.30;15.60;;;27.40;66.20;;;;;;1913823;75;21094;-54
2021/07/19 02:43:24;;;;;;;17.80;15.38;;;27.30;66.70;;;;;;1914711;75;21096;-54
2021/07/19 02:45:56;;;;;;;17.05;15.25;;;27.30;67.10;;;;;;1914836;74;21031;-53
2021/07/19 02:48:29;;;;;;;15.55;13.93;;;27.40;67.20;;;;;;1914746;75;21115;-54
2021/07/19 02:51:00;;;;;;;18.90;15.32;;;27.40;66.90;;;;;;1914326;75;21106;-53
2021/07/19 02:53:33;;;;;;;23.98;15.40;;;27.60;66.70;;;;;;1914742;75;21156;-53
2021/07/19 02:56:04;;;;;;;16.80;15.00;;;27.70;66.60;;;;;;1914930;75;21056;-53
2021/07/19 02:58:35;;;;;;;33.42;16.55;;;27.70;66.40;;;;;;1914840;75;21036;-52
2021/07/19 03:01:08;;;;;;;18.40;15.40;;;27.80;66.50;;;;;;1914488;75;21080;-53
2021/07/19 03:03:40;;;;;;;20.82;14.90;;;27.80;66.30;;;;;;1914704;75;21106;-53
2021/07/19 03:06:12;;;;;;;20.25;15.63;;;27.80;66.50;;;;;;1914725;75;21020;-53
2021/07/19 03:08:43;;;;;;;18.98;17.05;;;27.80;66.30;;;;;;1914794;75;21087;-52
2021/07/19 03:11:40;;;;;;;21.55;18.35;;;27.80;66.10;;;;;;1913340;75;21076;-53
2021/07/19 03:14:14;;;;;;;21.25;17.67;;;27.70;66.40;;;;;;1914663;75;21178;-52
2021/07/19 03:16:45;;;;;;;23.55;18.10;;;27.70;66.80;;;;;;1914805;75;21081;-54
2021/07/19 03:19:17;;;;;;;19.92;15.80;;;27.70;66.80;;;;;;1914720;75;21032;-54
2021/07/19 03:21:48;;;;;;;28.67;16.55;;;27.80;66.80;;;;;;1914650;75;21094;-53
2021/07/19 03:24:20;;;;;;;20.45;15.15;;;28.00;66.60;;;;;;1913399;75;21096;-54
2021/07/19 03:26:51;;;;;;;26.48;17.05;;;28.10;66.10;;;;;;1914823;75;21063;-52
2021/07/19 03:29:23;;;;;;;24.50;15.28;;;28.20;65.90;;;;;;1914785;75;21121;-52
2021/07/19 03:32:12;;;;;;;19.73;15.32;;;28.30;65.70;;;;;;1913360;75;21158;-53
2021/07/19 03:34:43;;;;;;;23.42;13.88;;;28.40;65.20;;;;;;1914731;75;21103;-53
2021/07/19 03:37:16;;;;;;;15.75;13.78;;;28.50;65.00;;;;;;1914701;75;21036;-53
2021/07/19 03:39:47;;;;;;;14.13;12.13;;;28.50;64.60;;;;;;1914815;75;21035;-53
2021/07/19 03:42:18;;;;;;;14.33;12.82;;;28.60;63.80;;;;;;1913789;75;21206;-53
2021/07/19 03:44:50;;;;;;;25.02;14.00;;;28.70;63.50;;;;;;1913866;75;21016;-53
2021/07/19 03:47:21;;;;;;;15.70;12.80;;;28.70;63.20;;;;;;1914827;75;21028;-53
2021/07/19 03:49:54;;;;;;;22.70;14.75;;;28.80;63.20;;;;;;1914668;75;21498;-52
2021/07/19 03:52:25;;;;;;;19.50;14.13;;;28.80;62.80;;;;;;1914762;75;21525;-53
2021/07/19 03:54:55;;;;;;;15.48;12.68;;;28.80;62.70;;;;;;1905075;74;21045;-53
2021/07/19 03:57:27;;;;;;;16.00;13.28;;;28.80;62.70;;;;;;1881665;75;21056;-54
2021/07/19 03:59:57;;;;;;;15.10;12.88;;;28.90;62.60;;;;;;1882053;76;21021;-53
2021/07/19 04:02:28;;;;;;;14.58;13.18;;;28.90;62.50;;;;;;1881637;75;21033;-54
2021/07/19 04:05:07;;;;;;;16.62;12.98;;;29.00;62.30;;;;;;1794955;79;21501;-54
2021/07/19 04:07:39;;;;;;;21.30;15.00;;;29.10;62.50;;;;;;1880351;75;21101;-53
2021/07/19 04:10:14;;;;;;;14.13;12.68;;;29.20;62.70;;;;;;1795262;79;21024;-53
2021/07/19 04:12:50;;;;;;;26.40;15.00;;;29.30;62.90;;;;;;1881194;75;21063;-53
2021/07/19 04:15:22;;;;;;;17.00;13.72;;;29.40;63.00;;;;;;1881566;76;21100;-53
2021/07/19 04:17:52;;;;;;;17.67;14.05;;;29.50;62.90;;;;;;1795190;79;21126;-53
2021/07/19 04:20:24;;;;;;;16.60;12.95;;;29.60;62.80;;;;;;1880405;75;21041;-53
2021/07/19 04:22:55;;;;;;;15.28;13.70;;;29.70;62.70;;;;;;1881785;76;21102;-53
2021/07/19 04:25:26;;;;;;;16.57;12.53;;;29.80;62.70;;;;;;1881852;75;21064;-54
2021/07/19 04:27:56;;;;;;;21.40;13.55;;;29.90;63.00;;;;;;1881854;76;20993;-54
2021/07/19 04:30:37;;;;;;;17.85;12.80;;;30.00;62.90;;;;;;1881903;75;21037;-53
2021/07/19 04:33:07;;;;;;;14.50;12.95;;;30.10;63.10;;;;;;1849725;76;21029;-54
2021/07/19 04:35:37;;;;;;;17.17;13.38;;;30.20;63.40;;;;;;1881975;75;21090;-53
2021/07/19 04:38:08;;;;;;;33.33;16.23;;;30.30;63.40;;;;;;1881832;75;21013;-53
2021/07/19 04:40:37;;;;;;;18.15;15.15;;;30.40;63.70;;;;;;1881918;76;21033;-54
2021/07/19 04:43:07;;;;;;;18.17;13.85;;;30.40;63.90;;;;;;1881828;75;21033;-53
2021/07/19 04:45:38;;;;;;;18.62;14.43;;;30.50;64.10;;;;;;1881860;76;21033;-53
2021/07/19 04:48:07;;;;;;;18.00;15.50;;;30.60;64.30;;;;;;1881773;75;21028;-54
2021/07/19 04:50:37;;;;;;;17.85;15.32;;;30.70;64.30;;;;;;1881962;76;21099;-54
2021/07/19 04:53:09;;;;;;;21.87;15.43;;;30.80;64.40;;;;;;1825646;77;21071;-53
2021/07/19 04:55:41;;;;;;;19.77;14.83;;;30.80;64.20;;;;;;1844564;76;21144;-53
2021/07/19 04:58:13;;;;;;;15.53;13.93;;;30.80;64.20;;;;;;1878033;76;21068;-54
2021/07/19 05:00:45;;;;;;;15.80;13.78;;;30.90;64.30;;;;;;1878151;76;21544;-54
2021/07/19 05:03:16;;;;;;;17.00;13.95;;;30.90;64.30;;;;;;1878058;76;21032;-54
2021/07/19 05:05:47;;;;;;;17.80;14.25;;;31.00;64.20;;;;;;1878395;76;21118;-54
2021/07/19 05:08:21;;;;;;;18.20;13.55;;;31.00;64.00;;;;;;1878229;76;21085;-54
2021/07/19 05:10:51;;;;;;;16.82;14.13;;;31.10;64.00;;;;;;1878234;76;21044;-54
2021/07/19 05:13:23;;;;;;;14.93;13.35;;;31.10;64.10;;;;;;1877927;76;21036;-53
2021/07/19 05:15:53;;;;;;;20.57;14.15;;;31.20;64.30;;;;;;1878006;76;21036;-54
2021/07/19 05:18:24;;;;;;;16.75;14.05;;;31.30;64.10;;;;;;1878123;76;21040;-53
2021/07/19 05:20:54;;;;;;;17.87;14.33;;;31.40;64.20;;;;;;1878028;76;21032;-53
2021/07/19 05:23:25;;;;;;;24.82;14.45;;;31.50;64.10;;;;;;1878038;76;21040;-53
2021/07/19 05:25:54;;;;;;;17.73;13.83;;;31.50;63.80;;;;;;1878117;76;21036;-53
2021/07/19 05:28:24;;;;;;;15.18;13.60;;;31.50;63.60;;;;;;1878214;76;21036;-53
2021/07/19 05:30:54;;;;;;;15.80;13.90;;;31.60;63.60;;;;;;1878282;76;21142;-53
2021/07/19 05:33:25;;;;;;;23.02;14.28;;;31.60;63.10;;;;;;1878212;76;21048;-54
2021/07/19 05:35:55;;;;;;;17.95;13.68;;;31.70;63.10;;;;;;1878332;76;21012;-53
2021/07/19 05:38:24;;;;;;;16.45;12.90;;;31.70;62.80;;;;;;1878168;76;21044;-53
2021/07/19 05:40:54;;;;;;;16.57;13.48;;;31.80;62.80;;;;;;1878416;76;21025;-53
2021/07/19 05:43:24;;;;;;;17.00;13.98;;;31.80;62.90;;;;;;1878339;76;21090;-53
2021/07/19 05:45:53;;;;;;;17.23;14.38;;;31.90;62.80;;;;;;1878205;76;21123;-54
2021/07/19 05:48:22;;;;;;;19.07;14.15;;;31.90;62.50;;;;;;1878251;76;21094;-54
2021/07/19 05:50:52;;;;;;;17.37;13.62;;;32.00;62.90;;;;;;1878166;76;21063;-51
2021/07/19 05:53:21;;;;;;;17.02;13.98;;;32.10;62.70;;;;;;1878125;76;21036;-53
2021/07/19 05:55:50;;;;;;;20.10;13.78;;;32.10;62.80;;;;;;1876077;76;21213;-52
2021/07/19 05:58:20;;;;;;;23.67;14.78;;;32.20;63.30;;;;;;1865857;77;21033;-53
2021/07/19 06:00:49;;;;;;;19.73;15.63;;;32.20;62.70;;;;;;1865764;77;21099;-53
2021/07/19 06:03:20;;;;;;;22.90;14.98;;;32.40;62.80;;;;;;1865795;77;21134;-52
2021/07/19 06:05:50;;;;;;;16.27;14.07;;;32.40;62.80;;;;;;1865832;77;21032;-53
2021/07/19 06:08:19;;;;;;;14.93;13.43;;;32.50;62.90;;;;;;1865838;76;21094;-53
2021/07/19 06:10:49;;;;;;;16.37;13.58;;;32.50;62.70;;;;;;1865714;77;21106;-53
2021/07/19 06:13:18;;;;;;;17.07;14.85;;;32.50;62.70;;;;;;1865692;77;21049;-54
2021/07/19 06:15:49;;;;;;;18.92;14.55;;;32.60;62.80;;;;;;1865786;76;21076;-52
2021/07/19 06:18:18;;;;;;;16.52;14.20;;;32.60;62.80;;;;;;1865683;77;21029;-54
2021/07/19 06:20:47;;;;;;;16.07;14.45;;;32.70;62.90;;;;;;1865718;77;21545;-54
2021/07/19 06:23:17;;;;;;;19.20;14.35;;;32.70;63.10;;;;;;1865688;77;21036;-53
2021/07/19 06:25:46;;;;;;;31.62;15.20;;;32.70;62.60;;;;;;1865806;77;21037;-53
2021/07/19 06:28:15;;;;;;;21.60;13.62;;;32.90;62.20;;;;;;1865810;77;21037;-53
2021/07/19 06:30:45;;;;;;;15.15;13.60;;;32.90;62.30;;;;;;1865848;77;21119;-54
2021/07/19 06:33:15;;;;;;;16.50;13.22;;;33.00;62.20;;;;;;1865721;77;21090;-53
2021/07/19 06:35:44;;;;;;;22.42;12.95;;;33.10;61.90;;;;;;1865900;77;21480;-53
2021/07/19 06:38:14;;;;;;;19.42;14.93;;;33.10;61.50;;;;;;1865686;77;21036;-54
2021/07/19 06:40:43;;;;;;;16.07;14.45;;;33.20;61.40;;;;;;1865745;77;21091;-53
2021/07/19 06:43:12;;;;;;;20.57;13.75;;;33.20;61.30;;;;;;1865691;77;21032;-54
2021/07/19 06:45:43;;;;;;;13.88;12.55;;;33.30;60.80;;;;;;1865759;77;21012;-52
2021/07/19 06:48:12;;;;;;;21.07;13.38;;;33.30;60.50;;;;;;1865739;77;21542;-53
2021/07/19 06:50:42;;;;;;;22.50;12.28;;;33.30;60.20;;;;;;1865873;77;21025;-54
2021/07/19 06:53:11;;;;;;;15.25;11.63;;;33.30;59.80;;;;;;1865717;77;21044;-54
2021/07/19 06:55:41;;;;;;;16.55;13.13;;;33.50;59.60;;;;;;1865827;77;21102;-53
2021/07/19 06:58:10;;;;;;;23.75;14.47;;;33.50;59.00;;;;;;1851421;76;21160;-53
2021/07/19 07:00:40;;;;;;;15.72;12.10;;;33.60;59.10;;;;;;1849683;76;21055;-54
2021/07/19 07:03:10;;;;;;;19.90;11.97;;;33.70;58.90;;;;;;1849526;76;21098;-53
2021/07/19 07:05:41;;;;;;;13.75;12.35;;;33.80;58.60;;;;;;1849594;76;21468;-52
2021/07/19 07:08:10;;;;;;;15.38;11.25;;;33.90;58.30;;;;;;1849670;77;21137;-53
2021/07/19 07:10:39;;;;;;;14.45;11.93;;;34.00;57.80;;;;;;1849497;76;21439;-54
2021/07/19 07:13:09;;;;;;;16.02;12.45;;;34.00;57.40;;;;;;1849684;76;21051;-54
2021/07/19 07:15:39;;;;;;;21.42;12.90;;;34.00;57.20;;;;;;1849573;76;21106;-54
2021/07/19 07:18:12;;;;;;;20.62;12.63;;;34.00;57.20;;;;;;1849549;76;21040;-54
2021/07/19 07:20:41;;;;;;;13.65;11.50;;;34.00;56.70;;;;;;1849631;76;21052;-53
2021/07/19 07:23:10;;;;;;;20.25;12.33;;;34.00;56.20;;;;;;1849538;76;21056;-53
2021/07/19 07:25:40;;;;;;;14.38;11.73;;;34.10;56.40;;;;;;1849639;76;21087;-53
2021/07/19 07:28:09;;;;;;;12.47;11.28;;;34.10;56.30;;;;;;1849668;77;21482;-54
2021/07/19 07:30:39;;;;;;;12.28;10.03;;;34.20;55.90;;;;;;1849771;76;21040;-53
2021/07/19 07:33:08;;;;;;;14.20;10.58;;;34.20;55.10;;;;;;1849565;76;21039;-53
2021/07/19 07:35:40;;;;;;;11.60;9.60;;;34.30;54.60;;;;;;1849613;77;21024;-53
2021/07/19 07:38:09;;;;;;;13.20;10.55;;;34.30;54.40;;;;;;1849535;76;21098;-53
2021/07/19 07:40:38;;;;;;;13.38;11.40;;;34.40;54.80;;;;;;1849625;77;21060;-53
2021/07/19 07:43:07;;;;;;;16.30;10.20;;;34.50;55.00;;;;;;1849630;76;21110;-54
2021/07/19 07:45:36;;;;;;;12.78;11.08;;;34.50;54.90;;;;;;1849812;76;21481;-49
2021/07/19 07:48:06;;;;;;;16.27;10.78;;;34.60;55.10;;;;;;1849694;76;21117;-50
2021/07/19 07:50:36;;;;;;;14.60;12.73;;;34.60;55.20;;;;;;1849639;77;21044;-50
2021/07/19 07:53:05;;;;;;;13.32;11.93;;;34.70;55.30;;;;;;1849505;77;21125;-50
2021/07/19 07:55:35;;;;;;;17.02;11.33;;;34.70;55.10;;;;;;1849570;77;21085;-50
2021/07/19 07:58:07;;;;;;;12.10;10.78;;;34.90;55.10;;;;;;1849445;76;21083;-48
2021/07/19 08:00:36;;;;;;;19.10;11.30;;;34.90;54.80;;;;;;1849606;77;21210;-48
2021/07/19 08:03:06;;;;;;;20.77;11.33;;;34.90;54.90;;;;;;1849561;77;21024;-49
2021/07/19 08:05:35;;;;;;;14.25;11.80;;;35.00;55.10;;;;;;1849693;77;21060;-50
2021/07/19 08:08:05;;;;;;;19.92;10.80;;;35.00;54.90;;;;;;1849668;77;21114;-49
2021/07/19 08:10:34;;;;;;;15.43;11.10;;;35.10;54.90;;;;;;1849140;76;21033;-50
2021/07/19 08:13:04;;;;;;;11.60;10.40;;;35.10;55.00;;;;;;1927503;74;21097;-50
2021/07/19 08:15:35;;;;;;;19.55;10.65;;;35.10;55.10;;;;;;1927525;74;21092;-46
2021/07/19 08:18:05;;;;;;;16.25;10.40;;;35.20;55.00;;;;;;1927323;74;21031;-50
2021/07/19 08:20:34;;;;;;;17.52;10.40;;;35.20;55.00;;;;;;1925715;74;21124;-49
2021/07/19 08:23:03;;;;;;;16.07;10.85;;;35.20;55.20;;;;;;1925789;74;21120;-50
2021/07/19 08:25:32;;;;;;;15.03;10.70;;;35.20;54.00;;;;;;1925203;74;21073;-51
2021/07/19 08:28:02;;;;;;;12.07;10.88;;;35.20;53.20;;;;;;1925936;74;21080;-47
2021/07/19 08:30:31;;;;;;;20.10;10.95;;;35.10;53.10;;;;;;1925957;74;21084;-50
2021/07/19 08:33:00;;;;;;;13.05;10.98;;;35.20;53.80;;;;;;1925701;74;21155;-49
2021/07/19 08:35:30;;;;;;;13.60;10.80;;;35.20;53.80;;;;;;1925417;74;21132;-51
2021/07/19 08:38:00;;;;;;;12.98;10.60;;;35.30;54.00;;;;;;1925420;74;21161;-50
2021/07/19 08:40:29;;;;;;;12.50;10.72;;;35.40;54.10;;;;;;1925423;74;21005;-52
2021/07/19 08:43:00;;;;;;;12.80;10.38;;;35.40;53.60;;;;;;1925413;74;21086;-50
2021/07/19 08:45:29;;;;;;;12.95;10.05;;;35.50;53.60;;;;;;1925989;74;21117;-50
2021/07/19 08:47:59;;;;;;;13.80;10.30;;;35.50;53.70;;;;;;1926355;74;21018;-49
2021/07/19 08:50:28;;;;;;;14.75;10.40;;;35.70;53.80;;;;;;1926660;74;20995;-49
2021/07/19 08:52:58;;;;;;;14.68;11.10;;;35.70;53.60;;;;;;1926824;74;21100;-49
2021/07/19 08:55:28;;;;;;;16.95;10.10;;;35.80;53.50;;;;;;1926750;74;21014;-51
2021/07/19 08:57:57;;;;;;;14.15;11.12;;;35.80;53.70;;;;;;1927679;74;21122;-50
2021/07/19 09:00:27;;;;;;;12.90;10.55;;;35.80;54.40;;;;;;1930482;74;21084;-50
2021/07/19 09:02:56;;;;;;;16.07;10.80;;;35.80;54.40;;;;;;1930599;74;21019;-49
2021/07/19 09:05:27;;;;;;;13.68;11.40;;;35.70;54.50;;;;;;1930474;74;21026;-47
2021/07/19 09:07:57;;;;;;;17.40;10.90;;;35.70;54.90;;;;;;1930472;74;21010;-48
2021/07/19 09:10:27;;;;;;;12.90;10.05;;;35.70;54.20;;;;;;1930441;74;20999;-53
2021/07/19 09:13:00;;;;;;;12.88;10.10;;;35.80;53.80;;;;;;1930433;74;21070;-52
2021/07/19 09:15:38;;;;;;;15.70;11.03;;;35.80;54.10;;;;;;1930727;74;21050;-48
2021/07/19 09:18:07;;;;;;;12.65;9.88;;;35.90;54.10;;;;;;1930315;74;21019;-51
2021/07/19 09:20:40;;;;;;;13.20;10.55;;;35.90;54.20;;;;;;1930424;74;21030;-46
2021/07/19 09:23:11;;;;;;;14.07;10.15;;;36.00;53.60;;;;;;1930420;74;21097;-47
2021/07/19 09:25:41;;;;;;;18.75;11.22;;;36.00;53.80;;;;;;1930533;74;21620;-50
2021/07/19 09:28:12;;;;;;;12.00;9.40;;;36.00;54.50;;;;;;1930474;74;21015;-46
2021/07/19 09:30:44;;;;;;;15.75;10.35;;;36.10;54.60;;;;;;1930545;74;21093;-49
2021/07/19 09:33:15;;;;;;;10.55;9.25;;;36.10;54.40;;;;;;1930601;74;21152;-51
2021/07/19 09:35:46;;;;;;;11.97;9.25;;;36.20;54.30;;;;;;1930431;74;21023;-52
2021/07/19 09:38:17;;;;;;;20.68;9.63;;;36.20;54.40;;;;;;1930629;74;21464;-51
2021/07/19 09:40:49;;;;;;;12.78;9.88;;;36.20;54.50;;;;;;1930303;74;21026;-51
2021/07/19 09:43:23;;;;;;;16.12;10.00;;;36.20;54.30;;;;;;1930213;74;21184;-51
2021/07/19 09:46:00;;;;;;;20.97;10.53;;;36.30;54.00;;;;;;1930751;74;21540;-53
2021/07/19 09:48:30;;;;;;;12.93;10.53;;;36.30;53.60;;;;;;1930059;74;21513;-48
2021/07/19 09:51:00;;;;;;;24.10;12.47;;;36.40;53.20;;;;;;1930429;74;21084;-54
2021/07/19 09:53:35;;;;;;;11.80;9.28;;;36.40;54.00;;;;;;1930412;74;21090;-54
2021/07/19 09:56:20;;;;;;;28.17;16.15;;;36.40;54.00;;;;;;1930243;74;21078;-52
2021/07/19 09:58:49;;;;;;;;;;;36.40;53.60;;;;;;1926562;74;21220;-53
2021/07/19 10:01:29;;;;;;;17.00;10.35;;;36.40;53.60;;;;;;1909820;75;20130;-51
2021/07/19 10:04:18;;;;;;;12.82;10.13;;;36.40;53.60;;;;;;1913957;75;21079;-51
2021/07/19 10:06:45;;;;;;;12.70;10.32;;;36.40;53.50;;;;;;1910445;75;21046;-52
2021/07/19 10:09:16;;;;;;;15.48;9.90;;;36.40;53.50;;;;;;1912929;75;21467;-50
2021/07/19 10:11:49;;;;;;;18.80;10.50;;;36.50;53.60;;;;;;1913941;75;21028;-50
2021/07/19 10:14:25;;;;;;;;;;;36.60;53.70;;;;;;1916903;75;21063;-52
2021/07/19 10:16:56;;;;;;;11.60;9.78;;;36.60;53.60;;;;;;1913824;75;20153;-51
2021/07/19 10:19:27;;;;;;;12.45;9.80;;;36.60;53.50;;;;;;1914092;75;21324;-47
2021/07/19 10:21:56;;;;;;;11.68;10.45;;;36.60;53.40;;;;;;1913938;75;21137;-49
2021/07/19 10:24:26;;;;;;;12.30;9.65;;;36.60;53.40;;;;;;1914157;75;21500;-50
2021/07/19 10:26:55;;;;;;;14.38;10.25;;;36.60;53.50;;;;;;1914140;75;21106;-51
2021/07/19 10:29:25;;;;;;;17.07;10.98;;;36.70;53.50;;;;;;1914340;75;21071;-51
2021/07/19 10:31:55;;;;;;;17.50;10.95;;;36.70;53.70;;;;;;1913879;75;21040;-49
2021/07/19 10:34:25;;;;;;;15.03;10.50;;;36.70;53.60;;;;;;1913956;75;21083;-51
2021/07/19 10:37:01;;;;;;;11.05;10.03;;;36.70;53.80;;;;;;1914068;75;21048;-51
2021/07/19 10:39:35;;;;;;;12.35;10.93;;;36.70;53.50;;;;;;1914123;75;21091;-47
2021/07/19 10:42:09;;;;;;;15.13;10.23;;;36.70;53.50;;;;;;1912714;75;21639;-49
2021/07/19 10:44:38;;;;;;;;;;;36.70;53.70;;;;;;1917060;74;21078;-49
2021/07/19 10:47:19;;;;;;;12.95;10.23;;;36.70;53.00;;;;;;1913865;75;20169;-51
2021/07/19 10:50:03;;;;;;;18.00;10.45;;;36.70;53.20;;;;;;1914165;75;21040;-47
2021/07/19 10:52:38;;;;;;;11.97;10.70;;;36.70;53.30;;;;;;1914541;75;21047;-51
2021/07/19 10:55:09;;;;;;;12.80;10.45;;;36.70;53.10;;;;;;1914763;75;21091;-51
2021/07/19 10:57:41;;;;;;;21.82;11.30;;;36.80;53.80;;;;;;1914770;75;21032;-51
2021/07/19 11:00:19;;;;;;;16.70;11.33;;;36.80;53.00;;;;;;1926643;74;21067;-52
2021/07/19 11:02:48;;;;;;;11.45;10.28;;;36.90;53.00;;;;;;1931079;74;21486;-51
2021/07/19 11:05:20;;;;;;;12.98;10.32;;;36.90;53.00;;;;;;1931109;74;21039;-50
2021/07/19 11:07:50;;;;;;;16.90;10.53;;;37.00;53.20;;;;;;1931038;74;21004;-51
2021/07/19 11:10:21;;;;;;;14.07;10.45;;;37.00;53.40;;;;;;1931152;74;21031;-51
2021/07/19 11:12:55;;;;;;;18.55;13.03;;;37.00;53.10;;;;;;1931009;74;21093;-51
2021/07/19 11:15:39;;;;;;;15.75;11.08;;;37.00;52.90;;;;;;1931127;74;21517;-52
2021/07/19 11:18:26;;;;;;;14.63;10.82;;;36.90;53.10;;;;;;1931177;74;21196;-50
2021/07/19 11:20:57;;;;;;;14.40;10.70;;;36.90;53.30;;;;;;1930993;74;21185;-51
2021/07/19 11:23:38;;;;;;;13.22;10.28;;;36.90;53.20;;;;;;1931050;74;21093;-51
2021/07/19 11:26:10;;;;;;;15.08;10.88;;;36.90;53.20;;;;;;1901519;74;21012;-50
2021/07/19 11:28:43;;;;;;;15.30;11.08;;;36.90;53.50;;;;;;1927940;74;21031;-51
2021/07/19 11:31:27;;;;;;;13.70;10.15;;;36.90;53.60;;;;;;1931179;74;21027;-53
2021/07/19 11:34:01;;;;;;;23.07;12.67;;;37.00;53.70;;;;;;1931236;74;21127;-52
2021/07/19 11:36:33;;;;;;;25.68;21.37;;;37.00;53.60;;;;;;1931051;74;21474;-49
2021/07/19 11:39:04;;;;;;;14.70;10.80;;;37.10;53.90;;;;;;1931310;74;21028;-51
2021/07/19 11:41:34;;;;;;;15.80;11.00;;;37.10;54.10;;;;;;1931169;74;21110;-50
2021/07/19 11:44:05;;;;;;;12.47;10.85;;;37.20;54.20;;;;;;1931129;74;21004;-51
2021/07/19 11:46:38;;;;;;;11.78;10.38;;;37.20;53.90;;;;;;1931209;74;21031;-52
2021/07/19 11:49:10;;;;;;;21.95;11.48;;;37.20;53.50;;;;;;1931475;74;21036;-52
2021/07/19 11:51:45;;;;;;;15.50;11.38;;;37.20;52.90;;;;;;1931238;74;21059;-51
2021/07/19 11:54:16;;;;;;;15.25;10.98;;;37.20;51.70;;;;;;1931136;74;21047;-51
2021/07/19 11:56:53;;;;;;;19.52;10.80;;;37.20;52.20;;;;;;1931277;74;21063;-49
2021/07/19 11:59:23;;;;;;;22.10;11.78;;;37.20;52.30;;;;;;1931060;74;21169;-49
2021/07/19 12:02:00;;;;;;;15.05;11.20;;;37.20;52.50;;;;;;1930917;74;21035;-50
2021/07/19 12:04:40;;;;;;;12.80;11.50;;;37.20;52.60;;;;;;1931024;74;21095;-52
2021/07/19 12:07:11;;;;;;;18.90;10.58;;;37.20;52.40;;;;;;1931222;74;21093;-52
2021/07/19 12:09:41;;;;;;;20.20;11.95;;;37.20;51.80;;;;;;1931064;74;21004;-52
2021/07/19 12:12:11;;;;;;;15.03;10.78;;;37.20;52.00;;;;;;1930984;74;21085;-52
2021/07/19 12:14:40;;;;;;;22.20;11.05;;;37.20;51.70;;;;;;1931105;74;21196;-51
2021/07/19 12:17:10;;;;;;;12.55;10.50;;;37.20;51.80;;;;;;1930968;74;21098;-51
2021/07/19 12:19:40;;;;;;;15.03;10.03;;;37.20;52.60;;;;;;1931009;74;21089;-49
2021/07/19 12:22:10;;;;;;;14.70;10.35;;;37.20;51.50;;;;;;1930960;74;21059;-49
2021/07/19 12:24:39;;;;;;;15.68;10.43;;;37.20;51.30;;;;;;1931076;74;21031;-51
2021/07/19 12:27:08;;;;;;;13.72;11.05;;;37.20;50.80;;;;;;1931021;74;21070;-52
2021/07/19 12:29:39;;;;;;;15.80;10.53;;;37.10;50.80;;;;;;1931078;74;21016;-50
2021/07/19 12:32:11;;;;;;;11.55;10.35;;;37.00;50.20;;;;;;1931009;74;21023;-49
2021/07/19 12:34:45;;;;;;;16.42;11.28;;;37.00;50.10;;;;;;1930992;74;21031;-51
2021/07/19 12:37:19;;;;;;;12.80;10.95;;;37.00;50.60;;;;;;1931125;74;21027;-49
2021/07/19 12:39:54;;;;;;;15.45;11.03;;;37.10;51.10;;;;;;1931106;74;21030;-51
2021/07/19 12:42:26;;;;;;;17.67;11.53;;;37.10;51.20;;;;;;1931020;74;21031;-50
2021/07/19 12:44:59;;;;;;;14.65;10.00;;;37.20;51.70;;;;;;1931216;74;21063;-48
2021/07/19 12:47:30;;;;;;;15.40;10.68;;;37.20;52.00;;;;;;1931237;74;21024;-52
2021/07/19 12:50:06;;;;;;;13.30;9.75;;;37.20;52.10;;;;;;1931158;74;21097;-51